sensor_id;sensor_type;location;lat;lon;timestamp;temperature;humidity
55634;DHT22;41504;53.162;6.788;2024-03-23T00:53:53;7.00;99.90
55634;DHT22;41504;53.162;6.788;2024-03-23T00:56:18;6.90;99.90
55634;DHT22;41504;53.162;6.788;2024-03-23T00:58:44;6.90;99.90
55634;DHT22;41504;53.162;6.788;2024-03-23T01:01:10;7.10;99.90
55634;DHT22;41504;53.162;6.788;2024-03-23T01:03:35;7.20;99.90
55634;DHT22;41504;53.162;6.788;2024-03-23T01:06:02;6.40;99.90
55634;DHT22;41504;53.162;6.788;2024-03-23T01:08:29;6.90;99.90
55634;DHT22;41504;53.162;6.788;2024-03-23T01:11:00;7.40;99.90
55634;DHT22;41504;53.162;6.788;2024-03-23T01:13:27;6.90;99.90
55634;DHT22;41504;53.162;6.788;2024-03-23T01:15:53;6.90;99.90
55634;DHT22;41504;53.162;6.788;2024-03-23T01:18:20;6.80;99.90
55634;DHT22;41504;53.162;6.788;2024-03-23T01:20:46;6.80;99.90
55634;DHT22;41504;53.162;6.788;2024-03-23T01:23:12;6.90;99.90
55634;DHT22;41504;53.162;6.788;2024-03-23T01:25:38;6.80;99.90
55634;DHT22;41504;53.162;6.788;2024-03-23T01:28:05;7.00;99.90
55634;DHT22;41504;53.162;6.788;2024-03-23T01:30:34;6.80;99.90
55634;DHT22;41504;53.162;6.788;2024-03-23T01:33:00;6.70;99.90
55634;DHT22;41504;53.162;6.788;2024-03-23T01:35:26;6.70;99.90
55634;DHT22;41504;53.162;6.788;2024-03-23T01:37:52;6.70;99.90
55634;DHT22;41504;53.162;6.788;2024-03-23T01:40:18;6.70;99.90
55634;DHT22;41504;53.162;6.788;2024-03-23T01:43:04;6.60;99.90
55634;DHT22;41504;53.162;6.788;2024-03-23T01:45:31;6.60;99.90
55634;DHT22;41504;53.162;6.788;2024-03-23T01:47:57;6.60;99.90
55634;DHT22;41504;53.162;6.788;2024-03-23T01:50:23;6.60;99.90
55634;DHT22;41504;53.162;6.788;2024-03-23T01:52:51;6.50;99.90
55634;DHT22;41504;53.162;6.788;2024-03-23T01:55:18;6.60;99.90
55634;DHT22;41504;53.162;6.788;2024-03-23T01:57:44;6.50;99.90
55634;DHT22;41504;53.162;6.788;2024-03-23T02:00:10;6.50;99.90
55634;DHT22;41504;53.162;6.788;2024-03-23T02:02:45;6.40;99.90
55634;DHT22;41504;53.162;6.788;2024-03-23T02:05:14;6.40;99.90
55634;DHT22;41504;53.162;6.788;2024-03-23T02:07:41;6.40;99.90
55634;DHT22;41504;53.162;6.788;2024-03-23T02:10:07;6.30;99.90
55634;DHT22;41504;53.162;6.788;2024-03-23T02:12:33;6.30;99.90
55634;DHT22;41504;53.162;6.788;2024-03-23T02:15:00;6.30;99.90
55634;DHT22;41504;53.162;6.788;2024-03-23T02:17:25;6.30;99.90
55634;DHT22;41504;53.162;6.788;2024-03-23T02:19:51;6.20;99.90
55634;DHT22;41504;53.162;6.788;2024-03-23T02:22:17;6.20;99.90
55634;DHT22;41504;53.162;6.788;2024-03-23T02:24:43;6.20;99.90
55634;DHT22;41504;53.162;6.788;2024-03-23T02:27:08;6.10;99.90
55634;DHT22;41504;53.162;6.788;2024-03-23T02:29:34;6.10;99.90
55634;DHT22;41504;53.162;6.788;2024-03-23T02:32:00;6.10;99.90
55634;DHT22;41504;53.162;6.788;2024-03-23T02:34:26;6.10;99.90
55634;DHT22;41504;53.162;6.788;2024-03-23T02:36:52;6.10;99.90
55634;DHT22;41504;53.162;6.788;2024-03-23T02:39:18;6.10;99.90
55634;DHT22;41504;53.162;6.788;2024-03-23T02:41:43;6.10;99.90
55634;DHT22;41504;53.162;6.788;2024-03-23T02:44:09;6.10;99.90
55634;DHT22;41504;53.162;6.788;2024-03-23T02:46:38;6.30;99.90
55634;DHT22;41504;53.162;6.788;2024-03-23T02:49:03;6.10;99.90
55634;DHT22;41504;53.162;6.788;2024-03-23T02:51:30;6.10;99.90
55634;DHT22;41504;53.162;6.788;2024-03-23T02:53:56;6.20;99.90
55634;DHT22;41504;53.162;6.788;2024-03-23T02:56:23;6.40;99.90
55634;DHT22;41504;53.162;6.788;2024-03-23T02:58:49;6.10;99.90
55634;DHT22;41504;53.162;6.788;2024-03-23T03:01:14;6.50;99.90
55634;DHT22;41504;53.162;6.788;2024-03-23T03:03:40;6.10;99.90
55634;DHT22;41504;53.162;6.788;2024-03-23T03:06:06;6.00;99.90
55634;DHT22;41504;53.162;6.788;2024-03-23T03:08:32;6.00;99.90
55634;DHT22;41504;53.162;6.788;2024-03-23T03:10:57;6.00;99.90
55634;DHT22;41504;53.162;6.788;2024-03-23T03:13:23;6.60;99.90
55634;DHT22;41504;53.162;6.788;2024-03-23T03:15:49;6.00;99.90
55634;DHT22;41504;53.162;6.788;2024-03-23T03:18:14;6.00;99.90
55634;DHT22;41504;53.162;6.788;2024-03-23T03:20:40;6.00;99.90
55634;DHT22;41504;53.162;6.788;2024-03-23T03:23:06;6.00;99.90
55634;DHT22;41504;53.162;6.788;2024-03-23T03:25:33;6.00;99.90
55634;DHT22;41504;53.162;6.788;2024-03-23T03:27:59;5.90;99.90
55634;DHT22;41504;53.162;6.788;2024-03-23T03:30:24;6.40;99.90
55634;DHT22;41504;53.162;6.788;2024-03-23T03:32:54;5.90;99.90
55634;DHT22;41504;53.162;6.788;2024-03-23T03:35:20;6.10;99.90
55634;DHT22;41504;53.162;6.788;2024-03-23T03:37:46;5.90;99.90
55634;DHT22;41504;53.162;6.788;2024-03-23T03:40:12;5.90;99.90
55634;DHT22;41504;53.162;6.788;2024-03-23T03:42:40;5.90;99.90
55634;DHT22;41504;53.162;6.788;2024-03-23T03:45:06;5.90;99.90
55634;DHT22;41504;53.162;6.788;2024-03-23T03:47:32;5.90;99.90
55634;DHT22;41504;53.162;6.788;2024-03-23T03:49:58;5.90;99.90
55634;DHT22;41504;53.162;6.788;2024-03-23T03:52:23;5.90;99.90
55634;DHT22;41504;53.162;6.788;2024-03-23T03:54:49;5.80;99.90
55634;DHT22;41504;53.162;6.788;2024-03-23T03:57:15;5.80;99.90
55634;DHT22;41504;53.162;6.788;2024-03-23T03:59:41;5.80;99.90
55634;DHT22;41504;53.162;6.788;2024-03-23T04:02:06;5.80;99.90
55634;DHT22;41504;53.162;6.788;2024-03-23T04:04:32;5.80;99.90
55634;DHT22;41504;53.162;6.788;2024-03-23T04:06:59;5.80;99.90
55634;DHT22;41504;53.162;6.788;2024-03-23T04:09:25;5.80;99.90
55634;DHT22;41504;53.162;6.788;2024-03-23T04:11:50;5.80;99.90
55634;DHT22;41504;53.162;6.788;2024-03-23T04:14:16;5.80;99.90
55634;DHT22;41504;53.162;6.788;2024-03-23T04:16:42;5.80;99.90
55634;DHT22;41504;53.162;6.788;2024-03-23T04:19:08;5.70;99.90
55634;DHT22;41504;53.162;6.788;2024-03-23T04:21:35;5.70;99.90
55634;DHT22;41504;53.162;6.788;2024-03-23T04:24:01;5.70;99.90
55634;DHT22;41504;53.162;6.788;2024-03-23T04:26:26;5.70;99.90
55634;DHT22;41504;53.162;6.788;2024-03-23T04:28:53;5.70;99.90
55634;DHT22;41504;53.162;6.788;2024-03-23T04:31:19;5.90;99.90
55634;DHT22;41504;53.162;6.788;2024-03-23T04:33:44;5.60;99.90
55634;DHT22;41504;53.162;6.788;2024-03-23T04:36:10;5.60;99.90
55634;DHT22;41504;53.162;6.788;2024-03-23T04:38:36;5.60;99.90
55634;DHT22;41504;53.162;6.788;2024-03-23T04:41:02;5.70;99.90
55634;DHT22;41504;53.162;6.788;2024-03-23T04:43:28;5.60;99.90
55634;DHT22;41504;53.162;6.788;2024-03-23T04:45:54;5.60;99.90
55634;DHT22;41504;53.162;6.788;2024-03-23T04:48:21;5.60;99.90
55634;DHT22;41504;53.162;6.788;2024-03-23T04:50:48;6.50;99.90
55634;DHT22;41504;53.162;6.788;2024-03-23T04:53:15;5.60;99.90
55634;DHT22;41504;53.162;6.788;2024-03-23T04:55:42;5.60;99.90
55634;DHT22;41504;53.162;6.788;2024-03-23T04:58:08;5.60;99.90
55634;DHT22;41504;53.162;6.788;2024-03-23T05:00:34;5.60;99.90
55634;DHT22;41504;53.162;6.788;2024-03-23T05:03:20;5.70;99.90
55634;DHT22;41504;53.162;6.788;2024-03-23T05:06:01;5.60;99.90
55634;DHT22;41504;53.162;6.788;2024-03-23T05:08:30;5.60;99.90
55634;DHT22;41504;53.162;6.788;2024-03-23T05:11:02;5.50;99.90
55634;DHT22;41504;53.162;6.788;2024-03-23T05:13:28;5.50;99.90
55634;DHT22;41504;53.162;6.788;2024-03-23T05:15:58;5.50;99.90
55634;DHT22;41504;53.162;6.788;2024-03-23T05:18:31;5.50;99.90
55634;DHT22;41504;53.162;6.788;2024-03-23T05:20:58;5.50;99.90
55634;DHT22;41504;53.162;6.788;2024-03-23T05:23:36;6.50;99.90
55634;DHT22;41504;53.162;6.788;2024-03-23T05:26:09;5.50;99.90
55634;DHT22;41504;53.162;6.788;2024-03-23T05:28:39;5.80;99.90
55634;DHT22;41504;53.162;6.788;2024-03-23T05:31:30;5.50;99.90
55634;DHT22;41504;53.162;6.788;2024-03-23T05:33:57;5.60;99.90
55634;DHT22;41504;53.162;6.788;2024-03-23T05:36:23;5.50;99.90
55634;DHT22;41504;53.162;6.788;2024-03-23T05:38:59;5.80;99.90
55634;DHT22;41504;53.162;6.788;2024-03-23T05:41:30;6.40;99.90
55634;DHT22;41504;53.162;6.788;2024-03-23T05:44:01;5.30;99.90
55634;DHT22;41504;53.162;6.788;2024-03-23T05:46:27;5.50;99.90
55634;DHT22;41504;53.162;6.788;2024-03-23T05:49:02;5.60;99.90
55634;DHT22;41504;53.162;6.788;2024-03-23T05:51:29;5.60;99.90
55634;DHT22;41504;53.162;6.788;2024-03-23T05:54:07;5.50;99.90
55634;DHT22;41504;53.162;6.788;2024-03-23T05:56:33;5.50;99.90
55634;DHT22;41504;53.162;6.788;2024-03-23T05:59:00;5.50;99.90
55634;DHT22;41504;53.162;6.788;2024-03-23T06:01:29;5.50;99.90
55634;DHT22;41504;53.162;6.788;2024-03-23T06:03:58;5.00;99.90
55634;DHT22;41504;53.162;6.788;2024-03-23T06:06:47;5.60;99.90
55634;DHT22;41504;53.162;6.788;2024-03-23T06:09:16;5.20;99.90
55634;DHT22;41504;53.162;6.788;2024-03-23T06:11:48;5.60;99.90
55634;DHT22;41504;53.162;6.788;2024-03-23T06:14:15;5.60;99.90
55634;DHT22;41504;53.162;6.788;2024-03-23T06:16:43;5.70;99.90
55634;DHT22;41504;53.162;6.788;2024-03-23T06:19:09;5.70;99.90
55634;DHT22;41504;53.162;6.788;2024-03-23T06:21:43;5.80;99.90
55634;DHT22;41504;53.162;6.788;2024-03-23T06:24:46;5.90;99.90
55634;DHT22;41504;53.162;6.788;2024-03-23T06:28:08;5.20;99.90
55634;DHT22;41504;53.162;6.788;2024-03-23T06:35:33;6.20;99.90
55634;DHT22;41504;53.162;6.788;2024-03-23T06:38:51;5.70;99.90
55634;DHT22;41504;53.162;6.788;2024-03-23T06:45:39;5.80;99.90
55634;DHT22;41504;53.162;6.788;2024-03-23T06:48:45;5.70;99.90
55634;DHT22;41504;53.162;6.788;2024-03-23T06:51:44;5.20;99.90
55634;DHT22;41504;53.162;6.788;2024-03-23T06:55:02;5.10;99.90
55634;DHT22;41504;53.162;6.788;2024-03-23T06:58:00;5.70;99.90
55634;DHT22;41504;53.162;6.788;2024-03-23T08:11:20;7.00;99.90
55634;DHT22;41504;53.162;6.788;2024-03-23T08:17:19;7.30;99.90
55634;DHT22;41504;53.162;6.788;2024-03-23T08:28:25;7.50;99.90
55634;DHT22;41504;53.162;6.788;2024-03-23T08:34:26;7.70;99.90
55634;DHT22;41504;53.162;6.788;2024-03-23T08:37:34;7.00;99.90
55634;DHT22;41504;53.162;6.788;2024-03-23T08:44:12;7.40;99.90
55634;DHT22;41504;53.162;6.788;2024-03-23T08:50:39;7.40;99.90
55634;DHT22;41504;53.162;6.788;2024-03-23T09:04:49;7.70;99.90
55634;DHT22;41504;53.162;6.788;2024-03-23T09:10:56;7.80;99.90
55634;DHT22;41504;53.162;6.788;2024-03-23T09:17:34;7.80;99.90
55634;DHT22;41504;53.162;6.788;2024-03-23T09:21:10;7.90;99.90
55634;DHT22;41504;53.162;6.788;2024-03-23T09:35:05;8.20;99.90
55634;DHT22;41504;53.162;6.788;2024-03-23T09:41:34;8.30;99.90
55634;DHT22;41504;53.162;6.788;2024-03-23T09:52:18;8.40;99.90
55634;DHT22;41504;53.162;6.788;2024-03-23T09:58:32;8.60;99.90
55634;DHT22;41504;53.162;6.788;2024-03-23T10:01:56;8.80;99.90
55634;DHT22;41504;53.162;6.788;2024-03-23T10:12:21;7.30;99.90
55634;DHT22;41504;53.162;6.788;2024-03-23T10:20:06;6.60;99.90
55634;DHT22;41504;53.162;6.788;2024-03-23T10:26:39;7.00;99.90
55634;DHT22;41504;53.162;6.788;2024-03-23T10:29:59;7.00;99.90
55634;DHT22;41504;53.162;6.788;2024-03-23T10:38:08;7.00;99.90
55634;DHT22;41504;53.162;6.788;2024-03-23T10:47:50;6.90;99.90
55634;DHT22;41504;53.162;6.788;2024-03-23T10:51:28;7.90;99.90
55634;DHT22;41504;53.162;6.788;2024-03-23T10:54:53;8.40;99.90
55634;DHT22;41504;53.162;6.788;2024-03-23T11:15:42;9.00;99.90
55634;DHT22;41504;53.162;6.788;2024-03-23T11:29:19;7.10;99.90
55634;DHT22;41504;53.162;6.788;2024-03-23T11:35:42;6.40;99.90
55634;DHT22;41504;53.162;6.788;2024-03-23T11:42:12;6.40;99.90
55634;DHT22;41504;53.162;6.788;2024-03-23T11:57:22;7.00;99.90
55634;DHT22;41504;53.162;6.788;2024-03-23T12:11:26;7.50;99.90
55634;DHT22;41504;53.162;6.788;2024-03-23T12:14:42;7.90;99.90
55634;DHT22;41504;53.162;6.788;2024-03-23T12:35:40;8.10;99.90
55634;DHT22;41504;53.162;6.788;2024-03-23T12:38:06;7.40;99.90
55634;DHT22;41504;53.162;6.788;2024-03-23T12:40:31;7.80;99.90
55634;DHT22;41504;53.162;6.788;2024-03-23T12:42:57;8.30;99.90
55634;DHT22;41504;53.162;6.788;2024-03-23T12:45:23;8.10;99.90
55634;DHT22;41504;53.162;6.788;2024-03-23T12:47:49;7.60;99.90
55634;DHT22;41504;53.162;6.788;2024-03-23T12:50:15;7.10;99.90
55634;DHT22;41504;53.162;6.788;2024-03-23T12:52:40;7.10;99.90
55634;DHT22;41504;53.162;6.788;2024-03-23T12:55:07;7.30;99.90
55634;DHT22;41504;53.162;6.788;2024-03-23T12:57:33;7.40;99.90
55634;DHT22;41504;53.162;6.788;2024-03-23T12:59:59;7.60;99.90
55634;DHT22;41504;53.162;6.788;2024-03-23T13:02:24;8.00;99.90
55634;DHT22;41504;53.162;6.788;2024-03-23T13:04:51;8.10;99.90
55634;DHT22;41504;53.162;6.788;2024-03-23T13:07:18;8.00;99.90
55634;DHT22;41504;53.162;6.788;2024-03-23T13:09:44;8.10;99.90
55634;DHT22;41504;53.162;6.788;2024-03-23T13:12:11;8.30;99.90
55634;DHT22;41504;53.162;6.788;2024-03-23T13:14:39;8.30;99.90
55634;DHT22;41504;53.162;6.788;2024-03-23T13:17:06;8.80;99.90
55634;DHT22;41504;53.162;6.788;2024-03-23T13:19:32;8.40;99.90
55634;DHT22;41504;53.162;6.788;2024-03-23T13:21:59;7.90;99.90
55634;DHT22;41504;53.162;6.788;2024-03-23T13:24:26;8.00;99.90
55634;DHT22;41504;53.162;6.788;2024-03-23T13:26:52;8.10;99.90
55634;DHT22;41504;53.162;6.788;2024-03-23T13:29:18;8.40;99.90
55634;DHT22;41504;53.162;6.788;2024-03-23T13:31:45;8.50;99.90
55634;DHT22;41504;53.162;6.788;2024-03-23T13:34:11;8.60;99.90
55634;DHT22;41504;53.162;6.788;2024-03-23T13:36:38;8.70;99.90
55634;DHT22;41504;53.162;6.788;2024-03-23T13:39:04;8.70;99.90
55634;DHT22;41504;53.162;6.788;2024-03-23T13:41:44;8.80;99.90
55634;DHT22;41504;53.162;6.788;2024-03-23T13:44:11;8.80;99.90
55634;DHT22;41504;53.162;6.788;2024-03-23T13:46:40;8.90;99.90
55634;DHT22;41504;53.162;6.788;2024-03-23T13:49:24;9.00;99.90
55634;DHT22;41504;53.162;6.788;2024-03-23T13:51:49;9.00;99.90
55634;DHT22;41504;53.162;6.788;2024-03-23T13:54:15;9.10;99.90
55634;DHT22;41504;53.162;6.788;2024-03-23T13:56:41;9.30;99.90
55634;DHT22;41504;53.162;6.788;2024-03-23T13:59:07;9.20;99.90
55634;DHT22;41504;53.162;6.788;2024-03-23T14:01:33;8.90;99.90
55634;DHT22;41504;53.162;6.788;2024-03-23T14:04:09;8.60;99.90
55634;DHT22;41504;53.162;6.788;2024-03-23T14:06:36;8.40;99.90
55634;DHT22;41504;53.162;6.788;2024-03-23T14:09:02;8.20;99.90
55634;DHT22;41504;53.162;6.788;2024-03-23T14:11:29;8.10;99.90
55634;DHT22;41504;53.162;6.788;2024-03-23T14:13:55;8.10;99.90
55634;DHT22;41504;53.162;6.788;2024-03-23T14:16:21;8.10;99.90
55634;DHT22;41504;53.162;6.788;2024-03-23T14:18:47;8.20;99.90
55634;DHT22;41504;53.162;6.788;2024-03-23T14:21:13;8.60;99.90
55634;DHT22;41504;53.162;6.788;2024-03-23T14:23:38;8.50;99.90
55634;DHT22;41504;53.162;6.788;2024-03-23T14:26:06;8.30;99.90
55634;DHT22;41504;53.162;6.788;2024-03-23T14:28:32;8.30;99.90
55634;DHT22;41504;53.162;6.788;2024-03-23T14:30:58;8.20;99.90
55634;DHT22;41504;53.162;6.788;2024-03-23T14:33:24;8.70;99.90
55634;DHT22;41504;53.162;6.788;2024-03-23T14:35:56;8.20;99.90
55634;DHT22;41504;53.162;6.788;2024-03-23T14:38:23;8.20;99.90
55634;DHT22;41504;53.162;6.788;2024-03-23T14:40:49;8.30;99.90
55634;DHT22;41504;53.162;6.788;2024-03-23T14:43:15;8.40;99.90
55634;DHT22;41504;53.162;6.788;2024-03-23T14:46:10;8.60;99.90
55634;DHT22;41504;53.162;6.788;2024-03-23T14:48:36;8.70;99.90
55634;DHT22;41504;53.162;6.788;2024-03-23T14:51:03;8.80;99.90
55634;DHT22;41504;53.162;6.788;2024-03-23T14:53:36;8.90;99.90
55634;DHT22;41504;53.162;6.788;2024-03-23T14:56:03;8.90;99.90
55634;DHT22;41504;53.162;6.788;2024-03-23T14:58:29;9.00;99.90
55634;DHT22;41504;53.162;6.788;2024-03-23T15:01:03;9.10;99.90
55634;DHT22;41504;53.162;6.788;2024-03-23T15:03:29;9.10;99.90
55634;DHT22;41504;53.162;6.788;2024-03-23T15:05:59;9.30;99.90
55634;DHT22;41504;53.162;6.788;2024-03-23T15:08:25;9.10;99.90
55634;DHT22;41504;53.162;6.788;2024-03-23T15:10:51;9.10;99.90
55634;DHT22;41504;53.162;6.788;2024-03-23T15:13:17;9.10;99.90
55634;DHT22;41504;53.162;6.788;2024-03-23T15:15:43;8.90;99.90
55634;DHT22;41504;53.162;6.788;2024-03-23T15:18:13;8.80;99.90
55634;DHT22;41504;53.162;6.788;2024-03-23T15:20:41;8.70;99.90
55634;DHT22;41504;53.162;6.788;2024-03-23T15:23:07;8.50;99.90
55634;DHT22;41504;53.162;6.788;2024-03-23T15:25:33;8.50;99.90
55634;DHT22;41504;53.162;6.788;2024-03-23T15:27:59;8.60;99.90
55634;DHT22;41504;53.162;6.788;2024-03-23T15:30:26;8.70;99.90
55634;DHT22;41504;53.162;6.788;2024-03-23T15:32:52;8.70;99.90
55634;DHT22;41504;53.162;6.788;2024-03-23T15:35:18;8.70;99.90
55634;DHT22;41504;53.162;6.788;2024-03-23T15:37:44;8.90;99.90
55634;DHT22;41504;53.162;6.788;2024-03-23T15:40:11;9.00;99.90
55634;DHT22;41504;53.162;6.788;2024-03-23T15:42:39;9.00;99.90
55634;DHT22;41504;53.162;6.788;2024-03-23T15:45:08;9.10;99.90
55634;DHT22;41504;53.162;6.788;2024-03-23T15:47:35;9.10;99.90
55634;DHT22;41504;53.162;6.788;2024-03-23T15:50:01;9.10;99.40
55634;DHT22;41504;53.162;6.788;2024-03-23T15:52:29;9.10;99.90
55634;DHT22;41504;53.162;6.788;2024-03-23T15:54:58;9.20;99.90
55634;DHT22;41504;53.162;6.788;2024-03-23T15:57:25;9.20;99.90
55634;DHT22;41504;53.162;6.788;2024-03-23T15:59:51;9.10;99.90
55634;DHT22;41504;53.162;6.788;2024-03-23T16:02:16;9.10;99.10
55634;DHT22;41504;53.162;6.788;2024-03-23T16:04:42;9.00;99.90
55634;DHT22;41504;53.162;6.788;2024-03-23T16:07:11;9.30;99.90
55634;DHT22;41504;53.162;6.788;2024-03-23T16:09:36;9.10;99.90
55634;DHT22;41504;53.162;6.788;2024-03-23T16:12:03;9.20;99.90
55634;DHT22;41504;53.162;6.788;2024-03-23T16:14:29;9.20;99.90
55634;DHT22;41504;53.162;6.788;2024-03-23T16:16:54;9.20;99.90
55634;DHT22;41504;53.162;6.788;2024-03-23T16:19:20;9.20;99.90
55634;DHT22;41504;53.162;6.788;2024-03-23T16:21:48;9.20;99.90
55634;DHT22;41504;53.162;6.788;2024-03-23T16:24:13;9.20;99.90
55634;DHT22;41504;53.162;6.788;2024-03-23T16:26:39;9.30;99.90
55634;DHT22;41504;53.162;6.788;2024-03-23T16:29:05;9.20;99.90
55634;DHT22;41504;53.162;6.788;2024-03-23T16:31:31;9.10;99.90
55634;DHT22;41504;53.162;6.788;2024-03-23T16:33:57;9.30;99.90
55634;DHT22;41504;53.162;6.788;2024-03-23T16:36:22;9.00;99.90
55634;DHT22;41504;53.162;6.788;2024-03-23T16:38:48;8.90;99.90
55634;DHT22;41504;53.162;6.788;2024-03-23T16:41:14;8.80;99.90
55634;DHT22;41504;53.162;6.788;2024-03-23T16:43:43;8.70;99.90
55634;DHT22;41504;53.162;6.788;2024-03-23T16:46:13;8.70;99.90
55634;DHT22;41504;53.162;6.788;2024-03-23T16:48:43;8.60;99.90
55634;DHT22;41504;53.162;6.788;2024-03-23T16:51:10;8.50;99.90
55634;DHT22;41504;53.162;6.788;2024-03-23T16:53:36;8.40;99.90
55634;DHT22;41504;53.162;6.788;2024-03-23T16:56:05;8.40;99.90
55634;DHT22;41504;53.162;6.788;2024-03-23T16:58:35;8.30;99.90
55634;DHT22;41504;53.162;6.788;2024-03-23T17:01:11;8.40;99.90
55634;DHT22;41504;53.162;6.788;2024-03-23T17:03:49;8.20;99.90
55634;DHT22;41504;53.162;6.788;2024-03-23T17:06:15;8.20;99.90
55634;DHT22;41504;53.162;6.788;2024-03-23T17:08:43;8.10;99.90
55634;DHT22;41504;53.162;6.788;2024-03-23T17:11:14;8.10;99.90
55634;DHT22;41504;53.162;6.788;2024-03-23T17:13:42;8.10;99.90
55634;DHT22;41504;53.162;6.788;2024-03-23T17:16:08;8.00;99.90
55634;DHT22;41504;53.162;6.788;2024-03-23T17:18:34;8.00;99.90
55634;DHT22;41504;53.162;6.788;2024-03-23T17:21:00;8.00;99.90
55634;DHT22;41504;53.162;6.788;2024-03-23T17:23:30;7.90;99.90
55634;DHT22;41504;53.162;6.788;2024-03-23T17:25:56;8.00;99.90
55634;DHT22;41504;53.162;6.788;2024-03-23T17:28:22;7.90;99.90
55634;DHT22;41504;53.162;6.788;2024-03-23T17:30:48;7.90;99.90
55634;DHT22;41504;53.162;6.788;2024-03-23T17:33:15;7.80;99.90
55634;DHT22;41504;53.162;6.788;2024-03-23T17:35:45;7.80;99.90
55634;DHT22;41504;53.162;6.788;2024-03-23T17:38:14;7.70;99.90
55634;DHT22;41504;53.162;6.788;2024-03-23T17:40:40;7.60;99.90
55634;DHT22;41504;53.162;6.788;2024-03-23T17:43:06;7.70;99.90
55634;DHT22;41504;53.162;6.788;2024-03-23T17:45:32;7.60;99.90
55634;DHT22;41504;53.162;6.788;2024-03-23T17:47:57;7.60;99.90
55634;DHT22;41504;53.162;6.788;2024-03-23T17:50:23;7.50;99.90
55634;DHT22;41504;53.162;6.788;2024-03-23T17:52:49;7.50;99.90
55634;DHT22;41504;53.162;6.788;2024-03-23T17:55:15;7.40;99.90
55634;DHT22;41504;53.162;6.788;2024-03-23T17:57:41;7.40;99.90
55634;DHT22;41504;53.162;6.788;2024-03-23T18:00:07;7.30;99.90
55634;DHT22;41504;53.162;6.788;2024-03-23T18:02:34;7.30;99.90
55634;DHT22;41504;53.162;6.788;2024-03-23T18:05:00;7.20;99.90
55634;DHT22;41504;53.162;6.788;2024-03-23T18:07:26;7.20;99.90
55634;DHT22;41504;53.162;6.788;2024-03-23T18:09:52;7.10;99.90
55634;DHT22;41504;53.162;6.788;2024-03-23T18:12:17;7.10;99.90
55634;DHT22;41504;53.162;6.788;2024-03-23T18:14:45;7.20;99.90
55634;DHT22;41504;53.162;6.788;2024-03-23T18:17:10;7.10;99.90
55634;DHT22;41504;53.162;6.788;2024-03-23T18:19:36;7.00;99.90
55634;DHT22;41504;53.162;6.788;2024-03-23T18:22:02;7.00;99.90
55634;DHT22;41504;53.162;6.788;2024-03-23T18:24:28;6.90;99.90
55634;DHT22;41504;53.162;6.788;2024-03-23T18:26:54;6.80;99.90
55634;DHT22;41504;53.162;6.788;2024-03-23T18:29:21;6.80;99.90
55634;DHT22;41504;53.162;6.788;2024-03-23T18:31:47;6.70;99.90
55634;DHT22;41504;53.162;6.788;2024-03-23T18:34:12;6.70;99.90
55634;DHT22;41504;53.162;6.788;2024-03-23T18:36:38;6.60;99.90
55634;DHT22;41504;53.162;6.788;2024-03-23T18:39:04;6.90;99.90
55634;DHT22;41504;53.162;6.788;2024-03-23T18:41:31;6.60;99.90
55634;DHT22;41504;53.162;6.788;2024-03-23T18:43:57;6.50;99.90
55634;DHT22;41504;53.162;6.788;2024-03-23T18:46:24;6.40;99.90
55634;DHT22;41504;53.162;6.788;2024-03-23T18:48:50;6.40;99.90
55634;DHT22;41504;53.162;6.788;2024-03-23T18:51:16;6.40;99.90
55634;DHT22;41504;53.162;6.788;2024-03-23T18:53:42;6.40;99.90
55634;DHT22;41504;53.162;6.788;2024-03-23T18:56:08;6.40;99.90
55634;DHT22;41504;53.162;6.788;2024-03-23T18:58:33;6.40;99.90
55634;DHT22;41504;53.162;6.788;2024-03-23T19:01:05;6.50;99.90
55634;DHT22;41504;53.162;6.788;2024-03-23T19:03:32;6.40;99.90
55634;DHT22;41504;53.162;6.788;2024-03-23T19:06:01;6.40;99.90
55634;DHT22;41504;53.162;6.788;2024-03-23T19:08:27;6.30;99.90
55634;DHT22;41504;53.162;6.788;2024-03-23T19:10:58;6.30;99.90
55634;DHT22;41504;53.162;6.788;2024-03-23T19:13:24;6.20;99.90
55634;DHT22;41504;53.162;6.788;2024-03-23T19:15:51;6.20;99.90
55634;DHT22;41504;53.162;6.788;2024-03-23T19:18:16;6.10;99.90
55634;DHT22;41504;53.162;6.788;2024-03-23T19:20:43;6.10;99.90
55634;DHT22;41504;53.162;6.788;2024-03-23T19:23:09;6.10;99.90
55634;DHT22;41504;53.162;6.788;2024-03-23T19:25:36;6.10;99.90
55634;DHT22;41504;53.162;6.788;2024-03-23T19:28:02;6.00;99.90
55634;DHT22;41504;53.162;6.788;2024-03-23T19:30:29;6.00;99.90
55634;DHT22;41504;53.162;6.788;2024-03-23T19:32:56;6.00;99.90
55634;DHT22;41504;53.162;6.788;2024-03-23T19:35:22;5.90;99.90
55634;DHT22;41504;53.162;6.788;2024-03-23T19:37:49;5.90;99.90
55634;DHT22;41504;53.162;6.788;2024-03-23T19:40:15;5.90;99.90
55634;DHT22;41504;53.162;6.788;2024-03-23T19:42:41;6.00;99.90
55634;DHT22;41504;53.162;6.788;2024-03-23T19:45:07;6.00;99.90
55634;DHT22;41504;53.162;6.788;2024-03-23T19:47:33;6.00;99.90
55634;DHT22;41504;53.162;6.788;2024-03-23T19:49:58;5.90;99.90
55634;DHT22;41504;53.162;6.788;2024-03-23T19:52:24;5.90;99.90
55634;DHT22;41504;53.162;6.788;2024-03-23T19:54:50;5.80;99.90
55634;DHT22;41504;53.162;6.788;2024-03-23T19:57:16;5.80;99.90
55634;DHT22;41504;53.162;6.788;2024-03-23T19:59:41;5.70;99.90
55634;DHT22;41504;53.162;6.788;2024-03-23T20:02:08;5.70;99.90
55634;DHT22;41504;53.162;6.788;2024-03-23T20:04:34;5.70;99.90
55634;DHT22;41504;53.162;6.788;2024-03-23T20:07:00;5.60;99.90
55634;DHT22;41504;53.162;6.788;2024-03-23T20:09:25;5.70;99.90
55634;DHT22;41504;53.162;6.788;2024-03-23T20:11:55;5.60;99.90
55634;DHT22;41504;53.162;6.788;2024-03-23T20:14:20;5.60;99.90
55634;DHT22;41504;53.162;6.788;2024-03-23T20:16:46;5.60;99.90
55634;DHT22;41504;53.162;6.788;2024-03-23T20:19:12;5.60;99.90
55634;DHT22;41504;53.162;6.788;2024-03-23T20:21:37;5.60;99.90
55634;DHT22;41504;53.162;6.788;2024-03-23T20:24:03;5.50;99.90
55634;DHT22;41504;53.162;6.788;2024-03-23T20:26:29;5.50;99.90
55634;DHT22;41504;53.162;6.788;2024-03-23T20:28:55;5.50;99.90
55634;DHT22;41504;53.162;6.788;2024-03-23T20:31:21;5.50;99.90
55634;DHT22;41504;53.162;6.788;2024-03-23T20:33:46;5.50;99.90
55634;DHT22;41504;53.162;6.788;2024-03-23T20:36:13;5.50;99.90
55634;DHT22;41504;53.162;6.788;2024-03-23T20:38:39;5.50;99.90
55634;DHT22;41504;53.162;6.788;2024-03-23T20:41:05;5.40;99.90
55634;DHT22;41504;53.162;6.788;2024-03-23T20:43:31;5.40;99.90
55634;DHT22;41504;53.162;6.788;2024-03-23T20:46:01;5.40;99.90
55634;DHT22;41504;53.162;6.788;2024-03-23T20:48:28;5.40;99.90
55634;DHT22;41504;53.162;6.788;2024-03-23T20:51:03;5.40;99.90
55634;DHT22;41504;53.162;6.788;2024-03-23T20:53:30;5.40;99.90
55634;DHT22;41504;53.162;6.788;2024-03-23T20:56:00;5.30;99.90
55634;DHT22;41504;53.162;6.788;2024-03-23T20:58:26;5.30;99.90
55634;DHT22;41504;53.162;6.788;2024-03-23T21:00:53;5.30;99.90
55634;DHT22;41504;53.162;6.788;2024-03-23T21:03:19;5.30;99.90
55634;DHT22;41504;53.162;6.788;2024-03-23T21:05:45;5.20;99.90
55634;DHT22;41504;53.162;6.788;2024-03-23T21:08:12;5.30;99.90
55634;DHT22;41504;53.162;6.788;2024-03-23T21:10:38;5.40;99.90